Time;durP1;ratioP1;P1;durP2;ratioP2;P2;SDS_P1;SDS_P2;PMS_P1;PMS_P2;Temp;Humidity;BMP_temperature;BMP_pressure;BME280_temperature;BME280_humidity;BME280_pressure;Samples;Min_cycle;Max_cycle;Signal;HPM_P1;HPM_P2
2021/04/05 00:01:49;;;;;;;9.88;7.45;;;6.30;79.90;;;;;;5031663;28;20274;-40
2021/04/05 00:04:17;;;;;;;11.15;6.78;;;6.30;80.50;;;;;;5031457;28;20252;-40
2021/04/05 00:06:44;;;;;;;8.25;7.30;;;6.20;80.90;;;;;;5031381;28;20358;-40
2021/04/05 00:09:13;;;;;;;10.68;7.32;;;6.20;81.40;;;;;;5031265;28;20235;-40
2021/04/05 00:11:40;;;;;;;8.95;6.57;;;6.10;81.90;;;;;;5031338;28;20205;-41
2021/04/05 00:14:08;;;;;;;8.50;6.78;;;6.00;82.40;;;;;;5031236;28;20721;-40
2021/04/05 00:16:35;;;;;;;9.40;6.65;;;6.00;82.70;;;;;;5031201;28;20615;-40
2021/04/05 00:19:02;;;;;;;6.88;6.15;;;5.90;83.00;;;;;;5031337;28;20295;-40
2021/04/05 00:21:29;;;;;;;8.50;6.57;;;5.90;83.40;;;;;;5031359;28;20673;-39
2021/04/05 00:23:57;;;;;;;8.75;6.97;;;5.90;83.70;;;;;;5031076;28;20302;-39
2021/04/05 00:26:24;;;;;;;7.25;6.55;;;5.80;83.90;;;;;;5031242;28;20205;-40
2021/04/05 00:28:51;;;;;;;7.22;6.57;;;5.80;84.20;;;;;;5031183;28;20319;-39
2021/04/05 00:31:19;;;;;;;8.52;7.20;;;5.80;84.50;;;;;;5031256;28;20247;-40
2021/04/05 00:33:46;;;;;;;9.45;7.10;;;5.80;84.70;;;;;;5031292;28;20263;-40
2021/04/05 00:36:13;;;;;;;8.88;6.57;;;5.80;85.40;;;;;;5031138;28;20295;-40
2021/04/05 00:38:41;;;;;;;7.88;7.07;;;5.70;85.20;;;;;;5031077;28;20631;-40
2021/04/05 00:41:10;;;;;;;10.70;6.28;;;5.70;85.30;;;;;;5031497;28;20217;-40
2021/04/05 00:43:38;;;;;;;9.82;7.10;;;5.80;85.60;;;;;;5034498;28;20263;-40
2021/04/05 00:46:06;;;;;;;8.80;6.97;;;5.80;85.80;;;;;;5034447;28;20248;-40
2021/04/05 00:48:35;;;;;;;7.72;7.03;;;5.70;85.90;;;;;;5034574;28;20235;-40
2021/04/05 00:51:06;;;;;;;8.35;6.45;;;5.70;86.10;;;;;;5034385;28;20209;-40
2021/04/05 00:53:36;;;;;;;7.15;6.55;;;5.80;86.20;;;;;;5034526;28;20775;-40
2021/04/05 00:56:05;;;;;;;9.05;6.68;;;5.70;86.30;;;;;;5034808;28;20213;-39
2021/04/05 00:58:32;;;;;;;8.80;6.57;;;5.70;86.70;;;;;;5034483;28;20299;-38
2021/04/05 01:01:02;;;;;;;7.60;5.93;;;5.60;87.10;;;;;;5034329;28;20644;-39
2021/04/05 01:03:31;;;;;;;7.93;7.05;;;5.60;87.40;;;;;;5034249;28;20641;-39
2021/04/05 01:06:03;;;;;;;7.55;6.38;;;5.60;87.70;;;;;;5034479;28;20303;-40
2021/04/05 01:08:30;;;;;;;9.55;7.10;;;5.50;87.80;;;;;;5033971;28;20269;-40
2021/04/05 01:10:58;;;;;;;8.52;7.28;;;5.50;88.00;;;;;;5034120;28;20209;-40
2021/04/05 01:13:25;;;;;;;10.45;6.88;;;5.50;88.10;;;;;;5034143;28;20283;-40
2021/04/05 01:15:52;;;;;;;11.60;7.65;;;5.50;88.30;;;;;;5034267;28;20212;-40
2021/04/05 01:18:21;;;;;;;8.10;7.30;;;5.50;88.30;;;;;;5034016;28;20236;-40
2021/04/05 01:20:48;;;;;;;7.75;6.63;;;5.50;88.40;;;;;;5034297;28;20383;-40
2021/04/05 01:23:17;;;;;;;8.05;7.22;;;5.60;88.40;;;;;;5033696;28;20283;-40
2021/04/05 01:25:45;;;;;;;12.23;6.80;;;5.60;88.60;;;;;;5033826;28;20212;-40
2021/04/05 01:28:12;;;;;;;7.88;6.63;;;5.50;88.90;;;;;;5033985;28;20220;-40
2021/04/05 01:30:41;;;;;;;9.80;7.22;;;5.40;89.10;;;;;;5034062;28;20635;-40
2021/04/05 01:33:10;;;;;;;8.90;6.55;;;5.40;89.30;;;;;;5034376;28;20299;-41
2021/04/05 01:35:41;;;;;;;8.35;7.40;;;5.40;89.50;;;;;;5034188;28;20347;-40
2021/04/05 01:38:10;;;;;;;7.20;6.50;;;5.30;89.70;;;;;;5034139;28;20216;-40
2021/04/05 01:40:40;;;;;;;7.43;6.72;;;5.30;89.80;;;;;;5034024;28;20209;-40
2021/04/05 01:43:08;;;;;;;6.75;6.05;;;5.30;90.00;;;;;;5033892;28;20287;-40
2021/04/05 01:45:39;;;;;;;9.20;6.78;;;5.30;90.00;;;;;;5033151;28;21152;-41
2021/04/05 01:48:07;;;;;;;9.82;6.45;;;5.30;90.00;;;;;;5033627;28;20209;-40
2021/04/05 01:50:34;;;;;;;11.13;8.25;;;5.40;90.10;;;;;;5033500;28;20243;-40
2021/04/05 01:53:04;;;;;;;12.60;11.27;;;5.40;90.10;;;;;;5033319;28;20296;-40
2021/04/05 01:55:33;;;;;;;9.45;8.48;;;5.40;90.20;;;;;;5033693;28;20339;-41
2021/04/05 01:58:01;;;;;;;19.38;14.02;;;5.30;90.20;;;;;;5033527;28;20212;-40
2021/04/05 02:00:30;;;;;;;8.32;6.63;;;5.30;90.30;;;;;;5033548;28;20543;-40
2021/04/05 02:02:58;;;;;;;7.00;6.30;;;5.30;90.30;;;;;;5033450;28;20212;-40
2021/04/05 02:05:27;;;;;;;8.55;6.78;;;5.20;90.40;;;;;;5033394;28;20233;-40
2021/04/05 02:08:04;;;;;;;9.68;6.55;;;5.20;90.50;;;;;;5033302;28;20274;-40
2021/04/05 02:10:32;;;;;;;8.52;7.00;;;5.20;90.60;;;;;;5033245;28;20244;-40
2021/04/05 02:13:01;;;;;;;10.98;6.95;;;5.10;90.70;;;;;;5033374;28;20239;-40
2021/04/05 02:15:28;;;;;;;8.20;6.95;;;5.10;90.80;;;;;;5033292;28;20212;-41
2021/04/05 02:17:55;;;;;;;7.65;6.90;;;5.10;90.80;;;;;;5033058;28;20256;-41
2021/04/05 02:20:22;;;;;;;7.15;6.45;;;5.10;90.80;;;;;;5033214;28;20234;-40
2021/04/05 02:22:52;;;;;;;10.63;7.38;;;5.20;90.80;;;;;;5032833;28;20375;-39
2021/04/05 02:25:22;;;;;;;13.82;10.57;;;5.20;90.80;;;;;;5033317;28;20582;-40
2021/04/05 02:27:51;;;;;;;8.18;7.13;;;5.20;90.70;;;;;;5032912;28;20664;-40
2021/04/05 02:30:23;;;;;;;8.95;6.38;;;5.20;91.00;;;;;;5032954;28;20260;-40
2021/04/05 02:32:52;;;;;;;6.78;6.07;;;5.30;90.70;;;;;;5032982;28;20677;-40
2021/04/05 02:35:21;;;;;;;8.80;6.45;;;5.30;90.70;;;;;;5032878;28;20212;-41
2021/04/05 02:37:49;;;;;;;7.10;6.35;;;5.30;90.60;;;;;;5032823;28;20215;-40
2021/04/05 02:40:16;;;;;;;6.70;6.07;;;5.30;90.60;;;;;;5032734;28;20734;-40
2021/04/05 02:42:44;;;;;;;7.50;6.55;;;5.40;90.60;;;;;;5032833;28;20208;-40
2021/04/05 02:45:15;;;;;;;8.70;6.82;;;5.40;90.60;;;;;;5032713;28;20568;-40
2021/04/05 02:47:44;;;;;;;8.13;6.38;;;5.40;90.60;;;;;;5032763;28;20244;-41
2021/04/05 02:50:12;;;;;;;8.55;6.80;;;5.30;90.60;;;;;;5032850;28;20289;-40
2021/04/05 02:52:39;;;;;;;7.00;6.10;;;5.30;90.60;;;;;;5032778;28;20251;-41
2021/04/05 02:55:09;;;;;;;8.45;6.15;;;5.30;90.60;;;;;;5014848;28;20296;-41
2021/04/05 02:57:37;;;;;;;6.32;5.72;;;5.30;90.70;;;;;;5032514;28;20611;-41
2021/04/05 03:00:07;;;;;;;7.50;6.50;;;5.30;90.70;;;;;;5032913;28;20240;-41
2021/04/05 03:02:35;;;;;;;6.18;5.57;;;5.20;90.80;;;;;;5032430;28;20697;-42
2021/04/05 03:05:04;;;;;;;8.07;6.40;;;5.20;91.00;;;;;;5031903;28;20640;-41
2021/04/05 03:07:31;;;;;;;5.63;5.13;;;5.10;91.10;;;;;;5032389;28;20750;-40
2021/04/05 03:09:59;;;;;;;6.85;5.68;;;5.00;91.10;;;;;;5032532;28;20247;-39
2021/04/05 03:12:27;;;;;;;9.50;6.60;;;5.00;91.30;;;;;;5032247;28;20209;-40
2021/04/05 03:14:55;;;;;;;9.07;5.30;;;5.00;91.30;;;;;;5032196;28;20247;-41
2021/04/05 03:17:24;;;;;;;8.85;6.95;;;4.90;91.40;;;;;;5032553;28;20675;-40
2021/04/05 03:19:52;;;;;;;9.55;6.32;;;4.90;91.50;;;;;;5032159;28;20209;-41
2021/04/05 03:22:21;;;;;;;5.82;5.30;;;4.90;91.50;;;;;;5032101;28;20280;-40
2021/04/05 03:24:48;;;;;;;8.50;5.85;;;4.90;91.60;;;;;;5032345;28;20296;-41
2021/04/05 03:27:15;;;;;;;13.18;9.68;;;4.80;91.70;;;;;;5031976;28;20209;-41
2021/04/05 03:29:44;;;;;;;7.72;6.90;;;4.80;91.70;;;;;;5031984;28;20229;-41
2021/04/05 03:32:16;;;;;;;12.20;5.55;;;4.80;91.70;;;;;;5032333;28;20287;-41
2021/04/05 03:34:50;;;;;;;6.38;5.75;;;4.90;91.70;;;;;;5032298;28;20243;-41
2021/04/05 03:37:19;;;;;;;7.65;5.63;;;4.90;91.70;;;;;;5032203;28;20218;-41
2021/04/05 03:39:50;;;;;;;6.63;5.68;;;4.90;91.70;;;;;;5031940;28;20215;-42
2021/04/05 03:42:22;;;;;;;7.47;6.65;;;4.80;91.70;;;;;;5031928;28;20197;-40
2021/04/05 03:44:55;;;;;;;7.25;6.20;;;4.80;91.80;;;;;;5032123;28;20235;-40
2021/04/05 03:47:32;;;;;;;10.15;5.88;;;4.80;91.90;;;;;;5031967;28;20215;-42
2021/04/05 03:50:10;;;;;;;8.85;7.00;;;4.80;91.90;;;;;;5031911;28;20224;-42
2021/04/05 03:52:42;;;;;;;8.02;6.22;;;4.80;91.90;;;;;;5031888;28;20303;-42
2021/04/05 03:55:12;;;;;;;8.93;6.10;;;4.80;91.90;;;;;;5031839;28;20248;-41
2021/04/05 03:57:45;;;;;;;8.82;7.28;;;4.80;91.90;;;;;;5031850;28;20248;-41
2021/04/05 04:00:15;;;;;;;5.20;4.57;;;4.80;91.90;;;;;;5031777;28;20730;-41
2021/04/05 04:02:46;;;;;;;11.85;6.15;;;4.80;91.90;;;;;;5031261;28;20299;-41
2021/04/05 04:05:19;;;;;;;6.68;5.43;;;4.80;91.90;;;;;;5031682;28;20245;-42
2021/04/05 04:07:50;;;;;;;10.20;5.30;;;4.80;91.90;;;;;;5031583;28;20208;-41
2021/04/05 04:10:19;;;;;;;8.20;6.63;;;4.80;91.90;;;;;;5031707;28;20630;-40
2021/04/05 04:12:48;;;;;;;8.82;6.82;;;4.80;91.90;;;;;;5031721;28;20205;-43
2021/04/05 04:15:17;;;;;;;6.63;5.78;;;4.80;91.90;;;;;;5032389;28;20205;-43
2021/04/05 04:17:44;;;;;;;6.30;5.57;;;4.80;92.00;;;;;;5035658;28;20243;-41
2021/04/05 04:20:15;;;;;;;11.43;6.28;;;4.80;92.00;;;;;;5035712;28;20212;-41
2021/04/05 04:22:44;;;;;;;6.75;5.15;;;4.80;92.10;;;;;;5035275;28;20238;-41
2021/04/05 04:25:15;;;;;;;9.40;5.45;;;4.80;92.10;;;;;;5035453;28;20212;-41
2021/04/05 04:27:44;;;;;;;9.35;7.43;;;4.80;92.10;;;;;;5035173;28;20209;-42
2021/04/05 04:30:30;;;;;;;6.93;5.05;;;4.80;92.10;;;;;;5035084;28;20283;-42
2021/04/05 04:33:02;;;;;;;7.85;6.45;;;4.80;92.10;;;;;;5035120;28;20243;-42
2021/04/05 04:35:30;;;;;;;8.52;5.32;;;4.70;92.10;;;;;;5035206;28;20240;-41
2021/04/05 04:37:57;;;;;;;6.43;5.40;;;4.70;92.20;;;;;;5034909;28;20304;-41
2021/04/05 04:40:25;;;;;;;7.63;6.80;;;4.70;92.20;;;;;;5034909;28;20900;-41
2021/04/05 04:42:56;;;;;;;8.73;7.30;;;4.70;92.10;;;;;;5035186;28;20298;-41
2021/04/05 04:45:24;;;;;;;6.10;5.50;;;4.80;92.20;;;;;;5034634;28;20726;-41
2021/04/05 04:47:51;;;;;;;8.88;6.88;;;4.80;92.10;;;;;;5034847;28;20295;-41
2021/04/05 04:50:19;;;;;;;6.97;6.18;;;4.80;92.10;;;;;;5034889;28;20239;-41
2021/04/05 04:52:46;;;;;;;6.93;6.20;;;4.80;92.00;;;;;;5034842;28;20587;-42
2021/04/05 04:55:15;;;;;;;7.55;6.82;;;4.90;92.00;;;;;;5034955;28;20610;-41
2021/04/05 04:57:42;;;;;;;7.38;6.55;;;4.90;92.00;;;;;;5034678;28;20664;-41
2021/04/05 05:00:11;;;;;;;6.07;5.47;;;5.00;91.90;;;;;;5034801;28;20293;-41
2021/04/05 05:02:41;;;;;;;8.18;6.60;;;5.20;91.70;;;;;;5034700;28;20240;-42
2021/04/05 05:05:11;;;;;;;8.75;5.47;;;5.30;91.90;;;;;;5034440;28;20256;-42
2021/04/05 05:07:40;;;;;;;6.70;6.00;;;5.40;91.40;;;;;;5034463;28;20419;-42
2021/04/05 05:10:09;;;;;;;5.72;5.22;;;5.40;91.30;;;;;;5034573;28;20325;-42
2021/04/05 05:12:37;;;;;;;5.63;5.03;;;5.50;91.10;;;;;;5034359;28;20208;-43
2021/04/05 05:15:06;;;;;;;6.18;4.93;;;5.60;91.00;;;;;;5034207;28;20557;-42
2021/04/05 05:17:37;;;;;;;6.47;5.10;;;5.70;90.70;;;;;;5034346;28;20308;-42
2021/04/05 05:20:04;;;;;;;6.45;5.30;;;5.80;90.50;;;;;;5034105;28;20552;-41
2021/04/05 05:22:32;;;;;;;7.30;5.25;;;5.90;90.30;;;;;;5034404;28;20320;-42
2021/04/05 05:25:00;;;;;;;8.30;5.05;;;5.90;90.20;;;;;;5034042;28;20556;-41
2021/04/05 05:27:28;;;;;;;6.68;5.32;;;5.90;90.00;;;;;;5033365;28;20291;-41
2021/04/05 05:29:56;;;;;;;9.80;5.63;;;6.00;89.80;;;;;;5033933;28;20224;-42
2021/04/05 05:32:23;;;;;;;8.25;4.88;;;6.00;89.70;;;;;;5033668;28;20204;-41
2021/04/05 05:34:51;;;;;;;5.40;4.20;;;6.00;89.50;;;;;;5033467;28;20299;-41
2021/04/05 05:37:21;;;;;;;5.28;4.60;;;6.10;89.30;;;;;;5033565;28;20666;-42
2021/04/05 05:39:48;;;;;;;6.65;5.28;;;6.10;89.00;;;;;;5033549;28;20614;-41
2021/04/05 05:42:26;;;;;;;8.60;4.72;;;6.20;88.70;;;;;;5033556;28;20236;-42
2021/04/05 05:45:01;;;;;;;6.03;4.60;;;6.30;88.30;;;;;;5033571;28;20340;-41
2021/04/05 05:47:38;;;;;;;4.85;4.03;;;6.30;87.80;;;;;;5033352;28;20736;-41
2021/04/05 05:50:13;;;;;;;7.50;4.55;;;6.40;87.50;;;;;;5033408;28;20601;-41
2021/04/05 05:52:49;;;;;;;8.18;5.13;;;6.60;87.30;;;;;;5033461;28;20286;-41
2021/04/05 05:55:35;;;;;;;4.75;4.35;;;6.70;86.60;;;;;;5033258;28;20208;-41
2021/04/05 05:58:11;;;;;;;5.75;4.45;;;6.90;85.80;;;;;;5033282;28;20254;-41
2021/04/05 06:00:42;;;;;;;5.95;4.35;;;7.10;85.40;;;;;;5032977;28;20304;-42
2021/04/05 06:03:27;;;;;;;6.18;4.53;;;7.20;85.60;;;;;;5033087;28;20629;-42
2021/04/05 06:06:08;;;;;;;6.65;4.20;;;7.40;84.40;;;;;;5032976;28;20295;-42
2021/04/05 06:08:44;;;;;;;4.65;3.70;;;7.60;83.50;;;;;;5033191;28;20244;-41
2021/04/05 06:11:23;;;;;;;6.82;4.50;;;7.70;83.20;;;;;;5032862;28;20244;-41
2021/04/05 06:14:00;;;;;;;6.43;3.90;;;7.80;82.50;;;;;;5032934;28;20287;-41
2021/04/05 06:16:37;;;;;;;4.47;4.07;;;8.00;81.90;;;;;;5032404;28;20281;-42
2021/04/05 06:19:18;;;;;;;6.18;4.90;;;8.10;81.30;;;;;;5033621;28;20247;-42
2021/04/05 06:21:56;;;;;;;5.18;3.97;;;8.30;81.50;;;;;;5032993;28;20295;-41
2021/04/05 06:24:28;;;;;;;6.65;4.53;;;8.30;80.50;;;;;;5033181;28;20239;-41
2021/04/05 06:26:59;;;;;;;7.30;4.13;;;8.40;80.20;;;;;;5033133;28;20205;-42
2021/04/05 06:29:33;;;;;;;4.35;3.88;;;8.50;79.90;;;;;;5033717;28;20319;-43
2021/04/05 06:32:14;;;;;;;5.18;3.80;;;8.60;79.60;;;;;;5032637;28;20212;-43
2021/04/05 06:35:01;;;;;;;6.45;4.60;;;8.70;79.20;;;;;;5032932;28;20699;-41
2021/04/05 06:37:35;;;;;;;5.25;4.13;;;8.80;78.40;;;;;;5032728;28;20235;-42
2021/04/05 06:40:06;;;;;;;6.00;3.78;;;8.90;77.80;;;;;;5031846;28;20204;-43
2021/04/05 06:43:12;;;;;;;4.88;4.25;;;9.00;77.60;;;;;;5032997;28;20671;-42
2021/04/05 06:46:00;;;;;;;6.35;4.82;;;9.10;76.90;;;;;;5020969;28;20291;-43
2021/04/05 06:49:02;;;;;;;4.57;3.83;;;9.10;76.70;;;;;;5032761;28;20243;-42
2021/04/05 06:51:57;;;;;;;6.78;4.32;;;9.20;76.40;;;;;;5032920;28;20637;-43
2021/04/05 06:55:14;;;;;;;5.30;3.80;;;9.20;76.10;;;;;;5033220;28;20262;-43
2021/04/05 06:58:02;;;;;;;4.57;3.70;;;9.30;75.70;;;;;;5008414;28;20205;-44
2021/04/05 07:00:35;;;;;;;5.20;3.78;;;9.30;76.20;;;;;;5032732;28;20205;-44
2021/04/05 07:03:41;;;;;;;4.55;3.63;;;9.40;75.40;;;;;;5032551;28;20612;-48
2021/04/05 07:06:28;;;;;;;12.70;4.18;;;9.40;75.00;;;;;;5021878;28;20209;-42
2021/04/05 07:09:02;;;;;;;6.88;4.03;;;9.50;75.10;;;;;;5032526;28;20215;-41
2021/04/05 07:11:39;;;;;;;5.88;3.85;;;9.50;74.60;;;;;;5032769;28;20239;-42
2021/04/05 07:14:15;;;;;;;5.00;3.97;;;9.60;74.20;;;;;;5031786;28;20344;-41
2021/04/05 07:16:55;;;;;;;7.68;4.57;;;9.60;73.40;;;;;;5031828;28;20626;-42
2021/04/05 07:19:43;;;;;;;5.07;4.00;;;9.60;73.10;;;;;;5031797;28;20205;-41
2021/04/05 07:22:17;;;;;;;5.30;3.58;;;9.70;72.60;;;;;;5032025;28;20240;-41
2021/04/05 07:24:55;;;;;;;5.57;4.10;;;9.70;72.70;;;;;;5031756;28;20671;-41
2021/04/05 07:27:33;;;;;;;5.30;4.10;;;9.90;72.30;;;;;;5031856;28;20634;-42
2021/04/05 07:30:08;;;;;;;6.03;4.30;;;10.10;72.40;;;;;;5031721;28;20286;-41
2021/04/05 07:32:42;;;;;;;5.97;3.60;;;10.20;71.30;;;;;;5031892;28;20478;-41
2021/04/05 07:35:17;;;;;;;7.25;3.90;;;10.30;70.70;;;;;;5031485;28;20667;-41
2021/04/05 07:37:50;;;;;;;6.00;4.20;;;10.40;70.50;;;;;;5031738;28;20209;-42
2021/04/05 07:40:35;;;;;;;7.22;4.18;;;10.40;70.10;;;;;;5031608;28;20208;-40
2021/04/05 07:43:07;;;;;;;5.45;4.30;;;10.50;70.00;;;;;;5031553;28;20247;-41
2021/04/05 07:45:43;;;;;;;6.95;4.45;;;10.60;69.80;;;;;;5031407;28;20739;-41
2021/04/05 07:48:19;;;;;;;6.60;4.63;;;10.80;69.60;;;;;;5031521;28;20308;-43
2021/04/05 07:50:51;;;;;;;5.78;4.18;;;10.80;69.60;;;;;;5033101;28;20319;-41
2021/04/05 07:53:21;;;;;;;5.85;4.68;;;10.90;69.30;;;;;;5035432;28;20212;-42
2021/04/05 07:55:49;;;;;;;6.43;5.10;;;11.00;69.10;;;;;;5035301;28;20204;-40
2021/04/05 07:58:43;;;;;;;8.48;4.70;;;11.10;69.10;;;;;;5035544;28;20212;-40
2021/04/05 08:01:19;;;;;;;8.07;4.97;;;11.40;68.50;;;;;;5035321;28;20267;-41
2021/04/05 08:04:03;;;;;;;13.35;3.90;;;11.60;67.80;;;;;;5035223;28;20208;-41
2021/04/05 08:06:38;;;;;;;8.40;6.78;;;11.90;67.10;;;;;;5035172;28;20287;-44
2021/04/05 08:09:08;;;;;;;11.05;5.85;;;12.00;67.10;;;;;;5034942;28;20649;-42
2021/04/05 08:12:01;;;;;;;13.98;8.65;;;12.10;66.60;;;;;;5035133;28;20299;-42
2021/04/05 08:14:45;;;;;;;8.38;5.05;;;12.20;66.40;;;;;;5030058;28;20208;-43
2021/04/05 08:17:23;;;;;;;10.90;7.00;;;12.40;65.70;;;;;;5035249;28;20239;-41
2021/04/05 08:19:57;;;;;;;6.70;5.00;;;12.50;65.50;;;;;;5035196;28;20248;-43
2021/04/05 08:22:32;;;;;;;7.30;3.92;;;12.60;65.40;;;;;;5034200;28;20272;-42
2021/04/05 08:25:13;;;;;;;7.20;4.97;;;12.70;64.70;;;;;;5034723;28;20291;-42
2021/04/05 08:27:50;;;;;;;8.18;3.75;;;12.70;64.60;;;;;;5034534;28;20208;-41
2021/04/05 08:30:26;;;;;;;7.50;4.60;;;12.70;64.20;;;;;;5034826;28;20259;-43
2021/04/05 08:33:03;;;;;;;10.05;4.93;;;12.70;64.50;;;;;;5034698;28;20239;-45
2021/04/05 08:35:40;;;;;;;7.10;4.70;;;12.80;64.20;;;;;;5034580;28;20308;-42
2021/04/05 08:38:16;;;;;;;14.27;6.80;;;13.00;63.80;;;;;;5034708;28;20219;-42
2021/04/05 08:40:49;;;;;;;8.65;5.05;;;13.00;64.60;;;;;;5034732;28;20297;-42
2021/04/05 08:43:25;;;;;;;9.93;4.20;;;13.10;63.00;;;;;;5034649;28;20560;-41
2021/04/05 08:46:05;;;;;;;5.70;3.90;;;13.20;62.60;;;;;;5034437;28;20291;-41
2021/04/05 08:48:38;;;;;;;6.15;3.83;;;13.10;62.30;;;;;;5034376;28;20690;-42
2021/04/05 08:51:11;;;;;;;5.88;4.15;;;13.10;62.50;;;;;;5034132;28;20228;-42
2021/04/05 08:53:46;;;;;;;6.43;4.20;;;13.10;62.30;;;;;;5034743;28;20300;-41
2021/04/05 08:56:16;;;;;;;7.63;3.88;;;13.10;62.10;;;;;;5034259;28;20247;-41
2021/04/05 08:58:50;;;;;;;8.32;4.25;;;13.10;62.00;;;;;;5034079;28;20251;-40
2021/04/05 09:01:24;;;;;;;8.57;3.60;;;13.10;62.00;;;;;;5034122;28;20232;-42
2021/04/05 09:03:52;;;;;;;8.38;3.63;;;13.00;62.20;;;;;;5033445;28;20349;-42
2021/04/05 09:06:23;;;;;;;6.35;3.85;;;12.90;62.70;;;;;;5034125;28;20641;-43
2021/04/05 09:08:51;;;;;;;13.45;5.70;;;12.90;62.30;;;;;;5034306;28;20240;-42
2021/04/05 09:11:19;;;;;;;11.93;5.15;;;13.00;62.40;;;;;;5033642;28;20316;-42
2021/04/05 09:13:48;;;;;;;7.95;4.88;;;13.00;61.90;;;;;;5034230;28;20236;-42
2021/04/05 09:16:45;;;;;;;5.68;4.28;;;13.10;61.80;;;;;;5033957;28;20315;-43
2021/04/05 09:19:41;;;;;;;7.90;4.15;;;13.30;60.50;;;;;;5033790;28;20240;-42
2021/04/05 09:22:43;;;;;;;7.80;4.38;;;13.30;60.40;;;;;;5033513;28;20276;-43
2021/04/05 09:25:50;;;;;;;11.15;3.90;;;13.30;59.90;;;;;;5033832;28;20211;-44
2021/04/05 09:28:46;;;;;;;9.57;3.40;;;13.50;59.70;;;;;;5033817;28;20236;-42
2021/04/05 09:31:33;;;;;;;6.15;3.83;;;13.60;58.80;;;;;;5033440;28;20713;-42
2021/04/05 09:34:29;;;;;;;6.65;4.10;;;13.50;58.60;;;;;;5036175;28;20575;-39
2021/04/05 09:37:29;;;;;;;7.50;3.85;;;13.50;58.90;;;;;;5035706;28;20567;-45
2021/04/05 09:40:21;;;;;;;8.82;4.10;;;13.50;59.10;;;;;;5035591;28;20260;-45
2021/04/05 09:43:15;;;;;;;4.45;3.50;;;13.70;58.70;;;;;;5036141;28;20244;-44
2021/04/05 09:45:45;;;;;;;4.82;3.80;;;13.70;58.10;;;;;;5036208;28;20303;-46
2021/04/05 09:48:43;;;;;;;5.15;3.53;;;13.60;58.30;;;;;;5035015;28;20204;-48
2021/04/05 09:51:36;;;;;;;4.75;4.10;;;13.60;58.80;;;;;;5035815;28;20283;-47
2021/04/05 09:54:13;;;;;;;7.32;4.25;;;13.50;58.50;;;;;;5016421;28;20209;-43
2021/04/05 09:56:47;;;;;;;7.38;4.30;;;13.50;58.70;;;;;;5035611;28;20220;-42
2021/04/05 09:59:18;;;;;;;6.88;4.00;;;13.60;59.00;;;;;;5034936;28;20240;-42
2021/04/05 10:01:49;;;;;;;5.55;3.63;;;13.60;58.50;;;;;;5036429;28;20300;-42
2021/04/05 10:04:23;;;;;;;4.75;3.75;;;13.70;58.50;;;;;;5034392;28;20300;-42
2021/04/05 10:06:53;;;;;;;5.88;3.80;;;13.80;58.30;;;;;;5034931;28;20218;-42
2021/04/05 10:09:27;;;;;;;6.57;4.45;;;13.80;58.00;;;;;;5034433;28;20236;-43
2021/04/05 10:11:55;;;;;;;11.32;4.43;;;13.80;58.00;;;;;;5035350;28;20236;-45
2021/04/05 10:14:25;;;;;;;5.65;4.22;;;13.80;58.30;;;;;;5034361;28;20213;-47
2021/04/05 10:16:55;;;;;;;9.52;4.25;;;13.80;58.30;;;;;;5034569;28;20609;-46
2021/04/05 10:19:32;;;;;;;6.75;4.07;;;13.70;58.50;;;;;;5035289;28;20209;-45
2021/04/05 10:22:03;;;;;;;4.15;3.60;;;13.60;58.60;;;;;;5034743;28;20338;-45
2021/04/05 10:24:33;;;;;;;9.50;4.75;;;13.60;59.10;;;;;;5034338;28;20235;-44
2021/04/05 10:27:04;;;;;;;5.97;3.95;;;13.70;59.20;;;;;;5034610;28;20209;-42
2021/04/05 10:29:35;;;;;;;4.43;4.00;;;13.90;59.50;;;;;;5033975;28;20644;-41
2021/04/05 10:32:04;;;;;;;6.95;4.47;;;14.10;58.70;;;;;;5033739;28;20209;-44
2021/04/05 10:34:34;;;;;;;6.50;4.32;;;14.20;58.50;;;;;;5034544;28;20748;-45
2021/04/05 10:37:10;;;;;;;4.82;4.03;;;14.30;58.30;;;;;;5034379;28;20311;-44
2021/04/05 10:39:37;;;;;;;10.93;4.68;;;14.40;58.20;;;;;;5034394;28;20210;-43
2021/04/05 10:42:13;;;;;;;5.38;3.47;;;14.40;58.00;;;;;;5034013;28;20236;-43
2021/04/05 10:44:45;;;;;;;10.00;5.20;;;14.30;58.00;;;;;;5034950;28;20208;-42
2021/04/05 10:47:26;;;;;;;6.78;4.45;;;14.20;58.20;;;;;;5033947;28;20247;-42
2021/04/05 10:49:56;;;;;;;7.78;4.80;;;14.20;58.30;;;;;;5034099;28;20225;-42
2021/04/05 10:52:27;;;;;;;5.93;4.00;;;14.30;59.00;;;;;;5033994;28;20548;-44
2021/04/05 10:54:56;;;;;;;4.93;4.07;;;14.60;58.00;;;;;;5034362;28;20219;-44
2021/04/05 10:57:31;;;;;;;5.43;4.25;;;14.80;57.60;;;;;;5033685;28;20209;-46
2021/04/05 11:00:00;;;;;;;8.82;4.32;;;14.90;57.40;;;;;;5034400;28;20315;-45
2021/04/05 11:02:32;;;;;;;5.05;4.40;;;15.00;57.10;;;;;;5031986;28;20610;-45
2021/04/05 11:05:05;;;;;;;5.95;4.03;;;15.00;56.80;;;;;;5032129;28;20227;-46
2021/04/05 11:07:34;;;;;;;4.50;3.30;;;15.00;57.20;;;;;;5031924;28;20646;-46
2021/04/05 11:10:05;;;;;;;5.97;4.15;;;15.10;56.70;;;;;;5031726;28;20649;-46
2021/04/05 11:12:34;;;;;;;5.95;3.70;;;15.30;56.00;;;;;;5032157;28;20235;-45
2021/04/05 11:15:04;;;;;;;6.97;3.90;;;15.40;55.60;;;;;;5032063;28;20205;-47
2021/04/05 11:17:33;;;;;;;8.30;3.78;;;15.50;55.30;;;;;;5031803;28;20675;-46
2021/04/05 11:20:03;;;;;;;3.45;2.90;;;15.60;55.20;;;;;;5031624;28;20209;-46
2021/04/05 11:22:31;;;;;;;4.55;3.72;;;15.70;54.90;;;;;;5031433;28;20244;-45
2021/04/05 11:25:03;;;;;;;5.90;3.50;;;15.90;54.10;;;;;;5031174;28;20212;-46
2021/04/05 11:27:35;;;;;;;5.55;2.95;;;16.10;53.70;;;;;;5031788;28;20215;-44
2021/04/05 11:30:05;;;;;;;8.15;3.03;;;16.20;53.40;;;;;;5031568;28;20343;-46
2021/04/05 11:32:35;;;;;;;9.35;3.95;;;16.30;52.20;;;;;;5031669;28;20213;-46
2021/04/05 11:35:08;;;;;;;5.63;3.03;;;16.20;51.20;;;;;;5031602;28;20215;-44
2021/04/05 11:37:37;;;;;;;7.35;3.22;;;16.00;50.80;;;;;;5031781;28;20212;-44
2021/04/05 11:40:10;;;;;;;6.03;3.13;;;15.80;51.50;;;;;;5031570;28;20287;-42
2021/04/05 11:42:43;;;;;;;5.57;3.00;;;15.70;50.90;;;;;;5031482;28;20327;-41
2021/04/05 11:45:19;;;;;;;7.72;3.33;;;15.60;50.70;;;;;;5031341;28;20742;-41
2021/04/05 11:47:50;;;;;;;8.77;3.28;;;15.60;51.20;;;;;;5031683;28;20255;-41
2021/04/05 11:50:23;;;;;;;5.65;2.83;;;15.60;50.50;;;;;;5031393;28;20588;-41
2021/04/05 11:52:53;;;;;;;5.60;3.20;;;15.70;50.40;;;;;;5031602;28;20259;-42
2021/04/05 11:55:26;;;;;;;3.95;3.33;;;15.80;50.10;;;;;;5031441;28;20209;-41
2021/04/05 11:57:59;;;;;;;4.00;2.95;;;15.90;50.90;;;;;;5031295;28;20308;-42
2021/04/05 12:00:32;;;;;;;6.50;3.72;;;15.90;49.80;;;;;;5031513;28;20282;-41
2021/04/05 12:03:08;;;;;;;8.73;3.80;;;15.90;49.50;;;;;;5031315;28;20716;-43
2021/04/05 12:05:40;;;;;;;8.80;3.15;;;15.90;49.00;;;;;;5032759;28;20212;-44
2021/04/05 12:08:13;;;;;;;4.00;3.28;;;15.90;49.50;;;;;;5031553;28;20204;-47
2021/04/05 12:10:44;;;;;;;4.72;2.55;;;15.90;49.00;;;;;;5031230;28;20229;-50
2021/04/05 12:13:17;;;;;;;7.35;2.83;;;16.10;48.70;;;;;;5031489;28;20216;-44
2021/04/05 12:15:47;;;;;;;6.50;3.03;;;16.10;48.30;;;;;;5031564;28;20645;-44
2021/04/05 12:18:22;;;;;;;7.95;3.08;;;16.20;48.00;;;;;;5031519;28;20610;-43
2021/04/05 12:20:58;;;;;;;6.68;2.40;;;16.20;47.60;;;;;;5030982;28;20231;-42
2021/04/05 12:23:25;;;;;;;3.35;2.45;;;16.20;47.40;;;;;;5030527;28;20641;-44
2021/04/05 12:25:53;;;;;;;4.57;2.80;;;16.30;47.30;;;;;;5031118;28;20228;-48
2021/04/05 12:28:21;;;;;;;5.47;2.35;;;16.30;47.40;;;;;;5031442;28;20632;-46
2021/04/05 12:30:54;;;;;;;7.18;2.90;;;16.30;47.30;;;;;;5030978;28;20264;-40
2021/04/05 12:33:26;;;;;;;5.90;2.83;;;16.30;47.50;;;;;;5031072;28;20209;-40
2021/04/05 12:35:54;;;;;;;8.57;3.63;;;16.10;47.80;;;;;;5031552;28;20296;-41
2021/04/05 12:38:32;;;;;;;7.65;3.30;;;16.00;48.10;;;;;;5034814;28;20216;-41
2021/04/05 12:41:03;;;;;;;6.18;3.38;;;16.00;47.80;;;;;;5034906;28;20204;-42
2021/04/05 12:43:33;;;;;;;3.58;2.85;;;15.90;47.90;;;;;;5034783;28;20677;-42
2021/04/05 12:46:03;;;;;;;6.85;2.63;;;15.80;48.10;;;;;;5035065;28;20227;-46
2021/04/05 12:48:32;;;;;;;6.25;2.95;;;15.80;48.40;;;;;;5034969;28;20290;-45
2021/04/05 12:51:03;;;;;;;3.63;2.72;;;15.90;49.00;;;;;;5034784;28;20229;-46
2021/04/05 12:53:31;;;;;;;5.68;2.95;;;15.90;48.10;;;;;;5034710;28;20296;-44
2021/04/05 12:56:00;;;;;;;4.72;2.53;;;15.80;48.20;;;;;;5034667;28;20232;-48
2021/04/05 12:58:29;;;;;;;6.43;2.92;;;15.60;48.10;;;;;;5034894;28;20300;-49
2021/04/05 13:00:57;;;;;;;4.75;3.03;;;15.50;48.60;;;;;;5034486;28;20710;-45
2021/04/05 13:03:29;;;;;;;5.45;3.35;;;15.40;48.60;;;;;;5034522;28;20208;-47
2021/04/05 13:06:03;;;;;;;5.38;3.20;;;15.30;48.60;;;;;;5034573;28;20304;-48
2021/04/05 13:08:38;;;;;;;6.15;2.60;;;15.10;49.10;;;;;;5034350;28;20299;-46
2021/04/05 13:11:18;;;;;;;5.32;3.00;;;15.00;49.80;;;;;;5034469;28;20271;-44
2021/04/05 13:13:50;;;;;;;4.97;2.90;;;14.90;50.10;;;;;;5034421;28;20266;-46
2021/04/05 13:16:26;;;;;;;4.28;2.58;;;14.90;50.20;;;;;;5034298;28;20251;-46
2021/04/05 13:19:01;;;;;;;7.20;3.38;;;14.80;50.20;;;;;;5034129;28;20248;-46
2021/04/05 13:21:36;;;;;;;5.30;3.30;;;14.70;50.90;;;;;;5034323;28;20522;-47